Terminal Aerodrome Forecast
Issued by NWS Quad Cities IA IL

Home | Current Version | Previous Version | Text Only | Print | Product List | Glossary On
Versions: 1 2 3 4 5 6 7 8 9 10 11 12 13 14 15 16 17 18 19 20 21
000
FTUS43 KDVN 202326
TAFMLI
TAF
KMLI 202326Z 2100/2124 16008KT P6SM BKN150
     FM210300 17008KT P6SM SCT120 BKN250 WS020/21045KT
     FM211500 17013G19KT P6SM BKN100
     FM212200 18014G22KT P6SM BKN040=

USA.gov is the U.S. government's official web portal to all federal, state and local government web resources and services.